Time;durP1;ratioP1;P1;durP2;ratioP2;P2;SDS_P1;SDS_P2;PMS_P1;PMS_P2;Temp;Humidity;BMP_temperature;BMP_pressure;BME280_temperature;BME280_humidity;BME280_pressure;Samples;Min_cycle;Max_cycle;Signal;HPM_P1;HPM_P2
2021/12/15 00:05:11;;;;;;;49.20;24.77;;;8.40;58.90;;;;;;4928304;23;20135;-89
2021/12/15 00:10:50;;;;;;;50.63;26.20;;;8.70;58.80;;;;;;4918354;29;20048;-89
2021/12/15 00:16:12;;;;;;;51.38;25.70;;;8.90;57.60;;;;;;4920643;29;20031;-88
2021/12/15 00:18:41;;;;;;;46.60;24.60;;;8.70;58.40;;;;;;5253865;23;20388;-88
2021/12/15 00:24:10;;;;;;;58.03;26.77;;;8.50;58.40;;;;;;5058330;23;20382;-87
2021/12/15 00:26:39;;;;;;;55.15;27.20;;;8.70;58.30;;;;;;4961046;28;20035;-87
2021/12/15 00:29:07;;;;;;;57.00;27.87;;;8.90;57.80;;;;;;4935393;29;20051;-87
2021/12/15 00:31:35;;;;;;;55.03;25.80;;;9.00;57.50;;;;;;4938875;29;20060;-87
2021/12/15 00:34:04;;;;;;;57.63;28.33;;;9.10;57.20;;;;;;4940950;29;20039;-88
2021/12/15 00:36:45;;;;;;;53.67;29.63;;;9.10;56.90;;;;;;5045790;23;20051;-90
2021/12/15 00:42:34;;;;;;;61.20;32.95;;;8.70;58.10;;;;;;5502010;23;20062;-88
2021/12/15 00:44:59;;;;;;;58.38;33.08;;;8.70;58.00;;;;;;4930861;29;20047;-88
2021/12/15 00:47:25;;;;;;;52.13;27.17;;;8.80;57.80;;;;;;4941491;29;20032;-87
2021/12/15 00:49:51;;;;;;;50.17;27.65;;;8.80;56.90;;;;;;4921761;29;20527;-87
2021/12/15 00:52:17;;;;;;;49.13;26.98;;;8.80;57.20;;;;;;4921921;29;20125;-88
2021/12/15 00:58:08;;;;;;;50.70;27.02;;;8.40;58.30;;;;;;4961603;23;20086;-86
2021/12/15 01:00:58;;;;;;;45.20;24.42;;;8.30;58.60;;;;;;4964439;23;20419;-85
2021/12/15 01:03:25;;;;;;;47.45;23.95;;;8.30;57.30;;;;;;4902949;29;20043;-86
2021/12/15 01:08:58;;;;;;;52.80;24.95;;;7.90;57.90;;;;;;5025862;23;20035;-85
2021/12/15 01:11:48;;;;;;;49.05;24.73;;;8.00;57.40;;;;;;4941194;29;20035;-86
2021/12/15 01:19:44;;;;;;;56.65;26.85;;;8.20;57.10;;;;;;4941214;29;20506;-85
2021/12/15 01:20:35;;;;;;;52.88;26.15;;;8.20;57.10;;;;;;4955468;28;20046;-86
2021/12/15 01:23:07;;;;;;;40.53;23.40;;;8.00;57.30;;;;;;4959669;28;20046;-85
2021/12/15 01:25:37;;;;;;;47.00;24.90;;;7.70;56.90;;;;;;4960736;28;20398;-86
2021/12/15 01:28:04;;;;;;;47.60;24.17;;;7.90;56.60;;;;;;4959527;28;20029;-86
2021/12/15 01:30:34;;;;;;;49.10;24.20;;;7.90;56.70;;;;;;4959653;28;20154;-84
2021/12/15 01:33:02;;;;;;;48.88;25.65;;;8.00;56.40;;;;;;4959788;28;20038;-85
2021/12/15 01:35:29;;;;;;;44.60;24.08;;;8.00;56.50;;;;;;4959510;28;20031;-85
2021/12/15 01:37:55;;;;;;;53.58;25.45;;;8.10;56.10;;;;;;4959664;28;20114;-84
2021/12/15 01:40:37;;;;;;;50.95;25.73;;;8.00;55.90;;;;;;4941456;29;20023;-84
2021/12/15 01:43:16;;;;;;;47.33;23.00;;;8.10;55.90;;;;;;4940242;29;20539;-83
2021/12/15 01:48:28;;;;;;;48.83;25.20;;;7.60;56.10;;;;;;4973655;28;20386;-84
2021/12/15 01:50:55;;;;;;;48.40;26.30;;;7.70;56.10;;;;;;4959659;28;20475;-90
2021/12/15 01:53:21;;;;;;;43.45;23.75;;;7.80;56.10;;;;;;4957863;28;20148;-83
2021/12/15 01:55:47;;;;;;;45.83;24.15;;;7.90;56.30;;;;;;4959004;28;20076;-83
2021/12/15 01:58:13;;;;;;;45.63;24.60;;;7.80;55.80;;;;;;4959249;28;20030;-84
2021/12/15 02:01:01;;;;;;;48.65;24.80;;;7.50;55.80;;;;;;4958916;28;20023;-84
2021/12/15 02:03:27;;;;;;;46.40;24.15;;;7.50;55.90;;;;;;4959785;28;20475;-84
2021/12/15 02:05:54;;;;;;;42.83;24.10;;;7.50;56.20;;;;;;4958737;28;20027;-83
2021/12/15 02:08:21;;;;;;;48.35;24.38;;;7.30;56.40;;;;;;4958968;28;20047;-84
2021/12/15 02:10:49;;;;;;;46.08;23.75;;;7.40;56.90;;;;;;4959417;28;20061;-82
2021/12/15 02:13:17;;;;;;;46.25;23.40;;;7.10;56.60;;;;;;4958360;28;20070;-83
2021/12/15 02:15:47;;;;;;;48.80;25.08;;;7.00;57.20;;;;;;4958836;28;20117;-83
2021/12/15 02:18:14;;;;;;;;;;;6.90;57.50;;;;;;4959395;28;20022;-84
2021/12/15 02:20:45;;;;;;;43.55;22.75;;;7.10;57.00;;;;;;4958039;28;19906;-88
2021/12/15 02:23:15;;;;;;;47.60;24.73;;;6.70;58.50;;;;;;4958560;28;20058;-84
2021/12/15 02:25:41;;;;;;;52.58;28.02;;;7.00;58.30;;;;;;4958769;28;20060;-86
2021/12/15 02:28:08;;;;;;;64.40;31.00;;;6.90;58.90;;;;;;4958614;28;20387;-83
2021/12/15 02:31:35;;;;;;;54.80;28.13;;;7.00;58.30;;;;;;4958037;28;20035;-82
2021/12/15 02:39:11;;;;;;;49.25;24.58;;;7.00;58.40;;;;;;4916556;28;20092;-83
2021/12/15 02:41:39;;;;;;;55.80;27.10;;;7.30;57.80;;;;;;4890651;29;20029;-83
2021/12/15 02:44:18;;;;;;;47.30;26.58;;;7.60;57.00;;;;;;4897354;29;20631;-83
2021/12/15 02:46:46;;;;;;;53.00;26.25;;;7.70;56.50;;;;;;4897469;29;20040;-86
2021/12/15 02:49:17;;;;;;;45.97;25.15;;;7.80;56.60;;;;;;4894077;29;20032;-83
2021/12/15 02:51:45;;;;;;;49.35;25.95;;;7.80;56.30;;;;;;4863017;29;20613;-83
2021/12/15 02:54:13;;;;;;;49.95;25.85;;;7.60;56.40;;;;;;4862922;29;20491;-85
2021/12/15 02:57:10;;;;;;;48.78;24.70;;;7.20;56.80;;;;;;4863043;29;20025;-83
2021/12/15 02:59:49;;;;;;;58.95;27.52;;;7.10;57.20;;;;;;4866302;29;20032;-84
2021/12/15 03:05:20;;;;;;;58.13;30.35;;;7.60;56.80;;;;;;4897267;29;20520;-83
2021/12/15 03:16:59;;;;;;;46.55;26.13;;;8.00;56.60;;;;;;4915483;29;20052;-84
2021/12/15 03:19:25;;;;;;;43.03;23.00;;;7.60;57.70;;;;;;4900069;29;20551;-84
2021/12/15 03:21:57;;;;;;;41.65;22.38;;;7.30;58.40;;;;;;4899977;29;20584;-83
2021/12/15 03:24:27;;;;;;;39.40;23.17;;;7.00;59.20;;;;;;4899548;29;20123;-83
2021/12/15 03:36:23;;;;;;;40.58;21.98;;;6.40;61.10;;;;;;4915586;29;20495;-84
2021/12/15 03:39:26;;;;;;;48.22;24.65;;;6.90;60.00;;;;;;4899791;29;20036;-84
2021/12/15 03:42:04;;;;;;;38.17;20.65;;;6.90;60.70;;;;;;4899784;29;20028;-84
2021/12/15 03:44:34;;;;;;;41.55;21.45;;;6.60;60.70;;;;;;4898158;29;20040;-84
2021/12/15 03:47:02;;;;;;;39.97;22.75;;;6.30;62.70;;;;;;4896504;29;20041;-84
2021/12/15 03:49:27;;;;;;;36.67;21.75;;;6.60;61.70;;;;;;4892047;29;20049;-84
2021/12/15 03:51:56;;;;;;;40.55;22.15;;;6.90;60.50;;;;;;4938144;29;20118;-84
2021/12/15 03:54:22;;;;;;;44.92;24.13;;;7.20;60.30;;;;;;4951556;28;20039;-84
2021/12/15 03:56:49;;;;;;;40.53;21.75;;;7.50;59.80;;;;;;4957304;28;20414;-85
2021/12/15 03:59:15;;;;;;;44.60;22.90;;;7.60;58.90;;;;;;4975019;28;20023;-83
2021/12/15 04:01:44;;;;;;;38.67;21.75;;;7.70;58.40;;;;;;4957314;28;20031;-85
2021/12/15 04:05:17;;;;;;;;;;;;;;;;;;;;;
2021/12/15 04:10:41;;;;;;;41.45;23.70;;;8.00;57.70;;;;;;4930603;29;20047;-85
2021/12/15 04:13:17;;;;;;;40.60;22.00;;;8.00;57.80;;;;;;4934914;29;20047;-85
2021/12/15 04:15:47;;;;;;;37.40;21.88;;;8.20;57.60;;;;;;4935369;29;20124;-84
2021/12/15 04:18:14;;;;;;;40.60;22.52;;;7.80;57.90;;;;;;4938580;29;20024;-85
2021/12/15 04:20:42;;;;;;;42.47;22.60;;;7.70;58.20;;;;;;4938398;29;20047;-85
2021/12/15 04:23:10;;;;;;;43.00;22.90;;;7.80;57.70;;;;;;4938655;29;20028;-84
2021/12/15 04:25:40;;;;;;;35.28;20.35;;;7.60;58.00;;;;;;4938373;29;20028;-84
2021/12/15 04:31:37;;;;;;;42.63;22.10;;;7.50;58.60;;;;;;4881173;29;20040;-84
2021/12/15 04:34:12;;;;;;;40.45;22.38;;;7.60;58.30;;;;;;4864815;29;20041;-85
2021/12/15 04:36:43;;;;;;;40.47;22.70;;;7.70;58.30;;;;;;4852792;29;20045;-86
2021/12/15 04:39:16;;;;;;;45.03;23.40;;;7.80;57.80;;;;;;4847569;29;20415;-87
2021/12/15 04:41:47;;;;;;;49.13;24.98;;;7.50;58.20;;;;;;4849822;29;20064;-83
2021/12/15 04:44:56;;;;;;;44.75;24.67;;;7.70;58.00;;;;;;4853442;29;20041;-82
2021/12/15 04:50:54;;;;;;;47.25;24.05;;;7.70;58.30;;;;;;5050391;23;20063;-86
2021/12/15 04:53:20;;;;;;;45.35;25.30;;;7.90;58.10;;;;;;4921326;29;20059;-85
2021/12/15 04:55:52;;;;;;;49.15;25.70;;;7.70;58.40;;;;;;4930517;29;20024;-84
2021/12/15 05:01:47;;;;;;;43.20;21.75;;;7.70;59.40;;;;;;4928670;29;20049;-86
2021/12/15 05:07:06;;;;;;;40.70;23.60;;;8.20;57.80;;;;;;4935948;29;20032;-89
2021/12/15 05:10:06;;;;;;;38.63;21.67;;;8.40;57.80;;;;;;4920553;29;20091;-86
2021/12/15 05:12:36;;;;;;;37.55;21.48;;;8.40;58.00;;;;;;4920673;29;20081;-85
2021/12/15 05:22:04;;;;;;;43.78;21.58;;;8.10;58.80;;;;;;4957498;29;20122;-85
2021/12/15 05:31:23;;;;;;;46.00;22.15;;;8.70;58.00;;;;;;4585487;23;10003053;-87
2021/12/15 05:36:14;;;;;;;51.13;25.13;;;8.60;58.10;;;;;;4967946;23;20455;-87
2021/12/15 05:38:58;;;;;;;47.50;22.85;;;8.80;58.00;;;;;;4947465;28;20023;-87
2021/12/15 05:41:36;;;;;;;49.78;24.05;;;8.50;58.40;;;;;;4964772;23;20027;-87
2021/12/15 05:44:08;;;;;;;55.10;26.52;;;8.10;59.40;;;;;;4899629;29;20372;-86
2021/12/15 05:46:34;;;;;;;44.63;22.98;;;7.80;60.10;;;;;;4897474;29;20029;-86
2021/12/15 05:49:05;;;;;;;46.17;23.15;;;7.80;60.20;;;;;;4893780;29;20540;-85
2021/12/15 05:54:54;;;;;;;64.07;27.90;;;7.30;61.50;;;;;;5049394;23;20159;-84
2021/12/15 06:01:59;;;;;;;67.60;27.42;;;7.30;62.00;;;;;;4995082;23;20097;-85
2021/12/15 06:08:17;;;;;;;65.07;28.83;;;7.30;62.20;;;;;;4893830;29;20097;-86
2021/12/15 06:10:43;;;;;;;65.70;29.63;;;7.50;62.00;;;;;;5157237;23;20043;-87
2021/12/15 06:13:15;;;;;;;73.68;32.58;;;7.30;62.50;;;;;;4958742;28;20034;-88
2021/12/15 06:15:58;;;;;;;83.20;32.90;;;7.40;62.50;;;;;;4958700;28;20081;-84
2021/12/15 06:18:25;;;;;;;99.90;35.88;;;7.70;62.40;;;;;;4958807;28;20109;-86
2021/12/15 06:20:53;;;;;;;85.40;32.80;;;8.20;60.90;;;;;;4958768;28;20363;-85
2021/12/15 06:23:20;;;;;;;83.13;33.40;;;8.40;60.10;;;;;;4958516;28;20466;-87
2021/12/15 06:38:12;;;;;;;97.28;34.65;;;7.30;63.20;;;;;;4936200;29;20070;-86
2021/12/15 06:40:54;;;;;;;86.18;33.03;;;7.10;63.20;;;;;;4935929;29;20483;-85
2021/12/15 06:43:31;;;;;;;86.63;35.65;;;7.10;63.00;;;;;;4919900;29;20027;-85
2021/12/15 07:48:47;;;;;;;71.68;33.15;;;7.40;63.60;;;;;;4933554;29;20051;-88
2021/12/15 07:51:13;;;;;;;69.20;30.88;;;7.50;63.60;;;;;;4922225;29;20032;-88
2021/12/15 07:53:41;;;;;;;66.90;31.88;;;7.40;63.60;;;;;;4938745;29;20091;-86
2021/12/15 07:56:08;;;;;;;66.68;31.05;;;7.50;63.90;;;;;;4923331;29;20387;-88
2021/12/15 07:58:34;;;;;;;80.15;35.75;;;7.50;64.00;;;;;;4923382;29;20047;-88
2021/12/15 08:01:02;;;;;;;65.07;32.72;;;7.60;63.60;;;;;;4923114;29;20450;-88
2021/12/15 08:03:30;;;;;;;88.35;38.35;;;7.70;63.70;;;;;;4923308;29;20051;-90
2021/12/15 08:05:57;;;;;;;107.78;48.22;;;7.70;63.70;;;;;;4923172;29;20028;-89
2021/12/15 08:08:23;;;;;;;70.03;32.50;;;7.90;64.10;;;;;;4580594;29;9999604;-94
2021/12/15 08:10:49;;;;;;;99.40;41.22;;;7.90;63.60;;;;;;4922605;29;20095;-90
2021/12/15 08:16:51;;;;;;;93.70;43.20;;;7.60;65.50;;;;;;4939514;29;20078;-92
2021/12/15 08:19:18;;;;;;;87.28;39.95;;;7.90;65.10;;;;;;4899460;29;20035;-91
2021/12/15 08:22:03;;;;;;;81.07;36.65;;;8.20;65.10;;;;;;4922696;29;20487;-91
2021/12/15 08:24:28;;;;;;;83.47;38.42;;;8.10;64.60;;;;;;4922946;29;20492;-91
2021/12/15 08:27:25;;;;;;;108.80;46.78;;;8.20;65.00;;;;;;4922788;29;20051;-92
2021/12/15 08:29:51;;;;;;;102.88;44.15;;;8.50;64.60;;;;;;4922937;29;20031;-93
2021/12/15 08:32:17;;;;;;;85.85;39.08;;;8.80;64.00;;;;;;4922941;29;20419;-92
2021/12/15 08:34:51;;;;;;;108.00;42.28;;;8.90;63.60;;;;;;4922336;29;20039;-93
2021/12/15 09:09:25;;;;;;;81.07;36.63;;;10.30;60.80;;;;;;5888584;23;20271;-84
2021/12/15 09:11:52;;;;;;;69.47;32.55;;;10.90;59.30;;;;;;4903445;29;20035;-85
2021/12/15 09:14:19;;;;;;;85.93;39.72;;;11.20;59.20;;;;;;4887873;29;20111;-85
2021/12/15 09:16:47;;;;;;;77.75;34.92;;;11.40;57.90;;;;;;4903017;29;20027;-84
2021/12/15 09:19:15;;;;;;;88.13;41.25;;;11.40;58.10;;;;;;4903198;29;20376;-84
2021/12/15 09:21:42;;;;;;;74.85;35.92;;;11.60;58.00;;;;;;4903051;29;20059;-85
2021/12/15 09:24:10;;;;;;;67.10;33.53;;;11.60;57.30;;;;;;4903361;29;20506;-84
2021/12/15 09:26:36;;;;;;;66.65;32.22;;;11.40;58.00;;;;;;4902837;29;20028;-85
2021/12/15 09:29:04;;;;;;;66.38;32.13;;;11.60;58.30;;;;;;4902893;29;20026;-83
2021/12/15 09:31:31;;;;;;;70.35;32.85;;;12.20;57.60;;;;;;4920120;29;20051;-84
2021/12/15 09:33:59;;;;;;;99.05;41.78;;;12.00;57.20;;;;;;4920231;29;20058;-89
2021/12/15 09:36:26;;;;;;;70.03;35.35;;;11.30;57.50;;;;;;4903042;29;20486;-84
2021/12/15 09:38:57;;;;;;;78.72;37.30;;;11.30;57.90;;;;;;4902513;29;20024;-83
2021/12/15 09:41:25;;;;;;;73.65;37.17;;;11.20;59.10;;;;;;4902994;29;20058;-88
2021/12/15 09:43:54;;;;;;;78.13;37.28;;;11.80;58.20;;;;;;4919370;29;20021;-84
2021/12/15 09:46:33;;;;;;;68.13;34.47;;;12.10;57.40;;;;;;4902788;29;20028;-83
2021/12/15 10:02:40;;;;;;;63.38;34.28;;;12.20;56.50;;;;;;4920038;29;20429;-84
2021/12/15 10:05:22;;;;;;;65.05;33.65;;;12.30;56.70;;;;;;4902656;29;20026;-85
2021/12/15 10:11:11;;;;;;;92.97;42.95;;;12.70;55.50;;;;;;4918755;29;20076;-84
2021/12/15 10:19:27;;;;;;;69.15;35.67;;;11.60;57.50;;;;;;4919298;29;20487;-84
2021/12/15 10:22:01;;;;;;;64.13;33.08;;;11.50;57.70;;;;;;4918845;29;20028;-84
2021/12/15 10:24:51;;;;;;;63.25;34.17;;;11.20;58.00;;;;;;4901903;29;20017;-84
2021/12/15 10:27:45;;;;;;;58.20;33.80;;;11.10;58.40;;;;;;4918737;29;20028;-84
2021/12/15 10:30:21;;;;;;;54.92;29.02;;;11.00;58.60;;;;;;4901932;29;20514;-84
2021/12/15 10:32:50;;;;;;;61.95;32.90;;;11.20;58.70;;;;;;4902295;29;20064;-84
2021/12/15 10:35:25;;;;;;;50.92;28.95;;;11.30;57.70;;;;;;4902509;29;20379;-83
2021/12/15 10:38:17;;;;;;;68.05;34.22;;;11.00;58.00;;;;;;4918518;29;20035;-84
2021/12/15 10:40:54;;;;;;;78.57;39.83;;;10.70;58.90;;;;;;4902210;29;20031;-85
2021/12/15 10:43:22;;;;;;;90.93;44.15;;;10.90;58.90;;;;;;4902018;29;20042;-84
2021/12/15 10:45:59;;;;;;;65.25;35.22;;;11.00;58.50;;;;;;4902097;29;20359;-84
2021/12/15 10:48:37;;;;;;;64.55;35.40;;;11.00;58.40;;;;;;4901394;29;20032;-84
2021/12/15 10:51:27;;;;;;;68.22;34.95;;;11.10;58.40;;;;;;4901661;29;20020;-84
2021/12/15 10:53:55;;;;;;;61.28;32.47;;;11.00;58.70;;;;;;4918483;29;20115;-84
2021/12/15 10:56:25;;;;;;;64.88;34.80;;;11.40;58.00;;;;;;4918535;29;20063;-84
2021/12/15 10:58:57;;;;;;;66.70;36.53;;;11.40;58.10;;;;;;4901320;29;20024;-86
2021/12/15 11:01:36;;;;;;;64.07;34.58;;;11.60;57.40;;;;;;4902066;29;20024;-85
2021/12/15 11:04:12;;;;;;;62.90;33.80;;;11.10;58.30;;;;;;4901486;29;20472;-85
2021/12/15 11:06:38;;;;;;;58.28;31.20;;;10.80;58.70;;;;;;4918262;29;20085;-85
2021/12/15 11:09:22;;;;;;;64.03;33.92;;;10.90;59.10;;;;;;4901457;29;20028;-85
2021/12/15 11:12:16;;;;;;;63.20;34.00;;;11.10;58.20;;;;;;4901558;29;20030;-86
2021/12/15 11:14:45;;;;;;;73.32;38.72;;;11.10;58.40;;;;;;4901372;29;20036;-85
2021/12/15 11:17:42;;;;;;;68.25;35.42;;;11.20;58.50;;;;;;4901432;29;20396;-84
2021/12/15 11:20:14;;;;;;;79.78;38.40;;;11.10;58.20;;;;;;4896899;29;20476;-85
2021/12/15 11:22:50;;;;;;;81.13;40.83;;;11.00;58.80;;;;;;4901501;29;20020;-86
2021/12/15 11:25:29;;;;;;;79.45;40.47;;;11.20;58.50;;;;;;4918287;29;20020;-84
2021/12/15 11:28:44;;;;;;;92.55;43.75;;;11.10;58.30;;;;;;4918390;29;20039;-84
2021/12/15 11:31:15;;;;;;;85.93;43.25;;;10.80;59.10;;;;;;4879724;29;20127;-85
2021/12/15 11:33:45;;;;;;;81.95;41.58;;;10.80;59.30;;;;;;4901029;29;20044;-85
2021/12/15 11:36:26;;;;;;;69.22;37.58;;;10.50;59.40;;;;;;4901324;29;20104;-85
2021/12/15 11:39:06;;;;;;;67.85;35.92;;;10.10;60.60;;;;;;4901007;29;20031;-84
2021/12/15 11:41:54;;;;;;;71.57;37.92;;;9.70;61.60;;;;;;4901121;29;20040;-85
2021/12/15 11:44:23;;;;;;;78.03;42.42;;;9.80;61.70;;;;;;4901265;29;20087;-85
2021/12/15 11:47:00;;;;;;;64.30;34.60;;;9.80;61.40;;;;;;4901055;29;20461;-84
2021/12/15 11:49:31;;;;;;;71.18;39.63;;;10.00;61.90;;;;;;4901222;29;20488;-84
2021/12/15 11:52:00;;;;;;;75.15;39.00;;;10.00;61.30;;;;;;4902034;29;20425;-85
2021/12/15 11:54:28;;;;;;;75.57;39.38;;;9.90;61.40;;;;;;4901024;29;20040;-85
2021/12/15 11:56:59;;;;;;;75.10;39.05;;;10.00;61.70;;;;;;4901125;29;20095;-85
2021/12/15 11:59:31;;;;;;;72.88;36.45;;;9.70;62.10;;;;;;4901255;29;20036;-86
2021/12/15 12:02:08;;;;;;;70.57;37.88;;;9.30;63.30;;;;;;4900907;29;20024;-86
2021/12/15 12:04:46;;;;;;;68.65;35.17;;;9.30;63.80;;;;;;4901391;29;20083;-86
2021/12/15 12:08:14;;;;;;;;;;;;;;;;;;;;;
2021/12/15 12:10:52;;;;;;;70.20;36.15;;;9.20;64.20;;;;;;4822727;29;20141;-86
2021/12/15 12:13:28;;;;;;;68.63;36.75;;;9.60;63.50;;;;;;4808071;29;20151;-86
2021/12/15 12:16:03;;;;;;;66.47;36.28;;;10.10;61.70;;;;;;4808286;29;20409;-87
2021/12/15 12:18:31;;;;;;;65.63;34.97;;;10.20;61.40;;;;;;4822868;29;20033;-86
2021/12/15 12:21:08;;;;;;;77.18;37.67;;;9.80;61.70;;;;;;4807634;29;20042;-86
2021/12/15 12:23:45;;;;;;;65.25;34.95;;;8.90;64.40;;;;;;4820564;29;20109;-86
2021/12/15 12:26:14;;;;;;;66.22;35.17;;;8.70;65.10;;;;;;4807418;29;20038;-86
2021/12/15 12:28:43;;;;;;;64.03;34.38;;;8.70;65.80;;;;;;4823103;29;20450;-86
2021/12/15 12:31:16;;;;;;;66.78;35.83;;;8.80;65.40;;;;;;4823102;29;20113;-86
2021/12/15 12:33:42;;;;;;;76.95;37.30;;;9.00;65.30;;;;;;4807466;29;20455;-86
2021/12/15 12:36:31;;;;;;;71.00;36.65;;;9.20;64.60;;;;;;4808420;29;20030;-87
2021/12/15 12:39:03;;;;;;;71.65;36.78;;;9.70;63.60;;;;;;4811092;29;20030;-87
2021/12/15 12:41:37;;;;;;;68.68;37.67;;;9.80;62.90;;;;;;4876039;29;20044;-86
2021/12/15 12:44:05;;;;;;;75.88;40.08;;;10.30;62.40;;;;;;4920719;29;20028;-87
2021/12/15 12:46:40;;;;;;;77.93;37.65;;;10.80;61.20;;;;;;4903875;29;20088;-86
2021/12/15 12:59:22;;;;;;;90.38;45.00;;;10.10;62.40;;;;;;4920869;29;20036;-86
2021/12/15 13:01:01;;;;;;;89.00;44.45;;;10.20;62.10;;;;;;4905153;29;20099;-86
2021/12/15 13:03:54;;;;;;;86.00;45.08;;;10.40;61.60;;;;;;4904113;29;20032;-87
2021/12/15 13:06:27;;;;;;;114.95;55.47;;;10.50;61.40;;;;;;4903572;29;20028;-86
2021/12/15 13:09:02;;;;;;;87.80;45.47;;;10.60;61.00;;;;;;4903637;29;20028;-87
2021/12/15 13:11:37;;;;;;;78.45;40.72;;;10.90;60.00;;;;;;4903528;29;20146;-87
2021/12/15 13:14:38;;;;;;;72.50;38.53;;;11.00;60.20;;;;;;4920214;29;20072;-86
2021/12/15 13:17:18;;;;;;;66.15;36.35;;;11.10;59.70;;;;;;4903649;29;20120;-86
2021/12/15 13:19:45;;;;;;;69.38;37.30;;;11.00;59.50;;;;;;4903971;29;20080;-87
2021/12/15 13:22:37;;;;;;;65.28;36.15;;;11.00;59.80;;;;;;4903444;29;20059;-87
2021/12/15 13:31:06;;;;;;;64.93;36.05;;;9.70;63.20;;;;;;4920309;29;20047;-87
2021/12/15 13:33:32;;;;;;;83.43;41.97;;;9.50;63.50;;;;;;4902935;29;20052;-87
2021/12/15 13:36:17;;;;;;;85.20;44.15;;;9.50;63.60;;;;;;4919990;29;20028;-87
2021/12/15 13:39:09;;;;;;;82.22;42.38;;;10.00;62.60;;;;;;4902911;29;20034;-86
2021/12/15 13:42:01;;;;;;;79.18;41.97;;;10.20;61.20;;;;;;4903305;29;20035;-87
2021/12/15 13:44:58;;;;;;;63.08;34.88;;;10.20;61.50;;;;;;4919868;29;20031;-89
2021/12/15 13:47:25;;;;;;;63.28;33.42;;;10.20;61.10;;;;;;4902629;29;20497;-87
2021/12/15 13:49:58;;;;;;;62.72;33.90;;;9.90;61.40;;;;;;4902692;29;20035;-86
2021/12/15 13:52:52;;;;;;;68.97;37.83;;;9.70;62.40;;;;;;4902798;29;20056;-86
2021/12/15 13:55:26;;;;;;;65.80;37.25;;;9.50;62.40;;;;;;4886943;29;20055;-86
2021/12/15 13:58:00;;;;;;;62.28;33.80;;;9.40;62.30;;;;;;4902534;29;20024;-87
2021/12/15 14:01:04;;;;;;;57.25;31.73;;;8.90;63.70;;;;;;4902851;29;20024;-86
2021/12/15 14:03:44;;;;;;;63.05;33.40;;;8.50;64.30;;;;;;4920134;23;20056;-88
2021/12/15 14:06:16;;;;;;;62.30;34.60;;;8.60;65.00;;;;;;4959168;28;20037;-85
2021/12/15 14:09:05;;;;;;;60.83;32.65;;;8.70;65.20;;;;;;4959460;28;20484;-85
2021/12/15 14:11:34;;;;;;;66.50;36.25;;;9.10;63.80;;;;;;4958409;28;20034;-87
2021/12/15 14:14:06;;;;;;;69.43;37.55;;;9.30;62.90;;;;;;4958759;28;20121;-84
2021/12/15 14:16:37;;;;;;;70.35;36.70;;;9.00;63.60;;;;;;4958827;28;20019;-86
2021/12/15 14:19:07;;;;;;;75.97;40.92;;;9.30;63.40;;;;;;4958574;28;20023;-85
2021/12/15 14:21:36;;;;;;;83.50;43.60;;;9.70;62.80;;;;;;4958878;28;20027;-85
2021/12/15 14:24:44;;;;;;;75.20;40.42;;;9.70;62.00;;;;;;4958520;28;20109;-85
2021/12/15 14:27:20;;;;;;;71.70;38.47;;;9.60;62.30;;;;;;4958665;28;20119;-85
2021/12/15 14:35:45;;;;;;;68.82;36.75;;;9.20;63.20;;;;;;4973995;28;20181;-84
2021/12/15 14:38:44;;;;;;;65.60;36.72;;;9.30;62.50;;;;;;4958714;28;20117;-83
2021/12/15 14:41:28;;;;;;;65.90;34.60;;;9.20;62.60;;;;;;4958183;28;20524;-85
2021/12/15 14:44:02;;;;;;;59.17;33.47;;;8.80;63.30;;;;;;4956068;29;20020;-84
2021/12/15 14:46:30;;;;;;;58.08;31.98;;;8.90;63.20;;;;;;4938162;29;20459;-84
2021/12/15 14:49:10;;;;;;;78.53;44.22;;;9.10;62.80;;;;;;4955706;29;20030;-84
2021/12/15 14:55:04;;;;;;;71.25;40.38;;;8.80;63.50;;;;;;4915844;29;20069;-85
2021/12/15 14:57:33;;;;;;;62.58;34.92;;;8.80;63.80;;;;;;4900154;29;20059;-84
2021/12/15 15:03:20;;;;;;;66.70;36.15;;;9.30;61.90;;;;;;4915956;29;20072;-87
2021/12/15 15:05:50;;;;;;;59.70;32.65;;;9.40;61.90;;;;;;4900097;29;20044;-86
2021/12/15 15:08:47;;;;;;;62.00;33.15;;;9.50;61.70;;;;;;4899626;29;20036;-84
2021/12/15 15:12:12;;;;;;;62.38;34.53;;;9.40;61.60;;;;;;4899885;29;20032;-85
2021/12/15 15:14:41;;;;;;;64.88;33.30;;;9.20;62.10;;;;;;4840799;29;20045;-84
2021/12/15 15:17:55;;;;;;;62.23;34.70;;;9.10;62.30;;;;;;4841108;29;20086;-85
2021/12/15 15:20:48;;;;;;;55.10;31.38;;;8.80;63.20;;;;;;4841271;29;20278;-85
2021/12/15 15:23:18;;;;;;;60.05;32.67;;;8.70;63.30;;;;;;4839690;29;20184;-85
2021/12/15 15:25:52;;;;;;;73.70;37.63;;;8.70;63.60;;;;;;4841055;29;20459;-86
2021/12/15 15:34:46;;;;;;;64.22;32.53;;;8.10;64.30;;;;;;4847166;29;20159;-85
2021/12/15 15:37:21;;;;;;;83.47;44.28;;;7.70;66.40;;;;;;4840926;29;20444;-87
2021/12/15 15:40:06;;;;;;;63.47;34.35;;;7.70;66.60;;;;;;4840999;29;20057;-87
2021/12/15 15:43:13;;;;;;;67.32;35.58;;;7.90;66.50;;;;;;4824744;29;20038;-85
2021/12/15 15:46:02;;;;;;;66.75;34.40;;;8.20;65.80;;;;;;4877730;29;20036;-85
2021/12/15 15:48:33;;;;;;;65.97;34.65;;;8.20;65.10;;;;;;4915305;29;20044;-83
2021/12/15 15:51:39;;;;;;;64.88;34.55;;;8.10;65.20;;;;;;4899404;29;20028;-86
2021/12/15 15:54:32;;;;;;;64.20;34.53;;;7.90;66.00;;;;;;4915138;29;20032;-85
2021/12/15 15:57:22;;;;;;;68.95;36.15;;;8.10;65.50;;;;;;4899847;29;20056;-85
2021/12/15 15:59:49;;;;;;;;;;;8.70;64.70;;;;;;4899729;29;20036;-86
2021/12/15 16:02:19;;;;;;;71.85;36.20;;;9.20;63.00;;;;;;4899277;29;19914;-86
2021/12/15 16:05:21;;;;;;;58.50;31.67;;;9.50;62.00;;;;;;4915358;29;20095;-87
2021/12/15 16:07:49;;;;;;;57.88;32.97;;;9.30;62.30;;;;;;4902283;29;20036;-85
2021/12/15 16:10:26;;;;;;;54.97;31.05;;;9.60;61.80;;;;;;4915469;29;20075;-83
2021/12/15 16:12:55;;;;;;;63.08;33.33;;;9.40;61.60;;;;;;4921072;29;20023;-86
2021/12/15 16:15:42;;;;;;;63.15;32.88;;;9.00;62.90;;;;;;4922403;29;20106;-88
2021/12/15 16:19:14;;;;;;;;;;;;;;;;;;;;;
2021/12/15 16:28:42;;;;;;;85.53;42.78;;;7.30;67.80;;;;;;4843631;29;20626;-87
2021/12/15 16:34:39;;;;;;;85.40;43.05;;;7.90;65.70;;;;;;4850977;29;20052;-87
2021/12/15 16:41:14;;;;;;;78.18;40.72;;;7.80;66.00;;;;;;4852397;29;20029;-87
2021/12/15 16:44:17;;;;;;;83.22;44.10;;;7.80;66.30;;;;;;4846495;29;20026;-86
2021/12/15 16:54:23;;;;;;;68.05;37.25;;;8.30;64.90;;;;;;5439119;23;20067;-86
2021/12/15 17:00:33;;;;;;;65.88;36.78;;;8.30;64.40;;;;;;4880433;29;20044;-86
2021/12/15 17:06:29;;;;;;;75.47;41.42;;;8.10;65.60;;;;;;4880720;29;20033;-87
2021/12/15 17:12:40;;;;;;;76.00;40.22;;;8.00;65.80;;;;;;4880273;29;20135;-87
2021/12/15 17:15:12;;;;;;;93.33;45.03;;;8.10;65.50;;;;;;4879819;29;20037;-86
2021/12/15 17:21:04;;;;;;;85.45;46.20;;;8.40;64.90;;;;;;4879829;29;20035;-84
2021/12/15 17:23:35;;;;;;;83.20;45.28;;;8.40;64.70;;;;;;4864924;29;20037;-85
2021/12/15 17:26:05;;;;;;;75.28;41.13;;;8.40;64.90;;;;;;5496896;23;20511;-89
2021/12/15 17:28:35;;;;;;;86.68;43.08;;;8.80;64.30;;;;;;4963925;28;20039;-90
2021/12/15 17:31:29;;;;;;;79.93;40.88;;;8.90;63.60;;;;;;4959991;28;20063;-86
2021/12/15 17:34:24;;;;;;;546.65;341.10;;;9.00;63.10;;;;;;4957667;28;20039;-88
2021/12/15 17:36:58;;;;;;;114.68;61.75;;;9.00;63.60;;;;;;4959451;28;20053;-90
2021/12/15 17:39:28;;;;;;;254.68;200.55;;;9.00;63.30;;;;;;4959484;28;20031;-90
2021/12/15 17:42:49;;;;;;;229.32;175.40;;;8.80;64.30;;;;;;4957713;28;20042;-88
2021/12/15 17:45:23;;;;;;;291.75;206.00;;;9.00;64.00;;;;;;4951736;28;20117;-89
2021/12/15 17:51:52;;;;;;;89.57;46.53;;;8.80;64.10;;;;;;4897642;29;20638;-88
2021/12/15 17:54:25;;;;;;;88.72;48.33;;;9.10;63.00;;;;;;4879765;29;20401;-90
2021/12/15 17:56:53;;;;;;;100.47;53.13;;;9.10;62.60;;;;;;4896492;29;20080;-91
2021/12/15 17:59:19;;;;;;;110.97;55.63;;;9.00;62.80;;;;;;4864043;29;20033;-89
2021/12/15 18:02:24;;;;;;;109.03;56.17;;;8.90;63.30;;;;;;4879698;29;20028;-91
2021/12/15 18:04:53;;;;;;;123.65;62.38;;;8.70;63.60;;;;;;4874095;29;20051;-91
2021/12/15 18:07:19;;;;;;;101.68;51.58;;;8.60;64.00;;;;;;4873456;29;20105;-89
2021/12/15 18:09:48;;;;;;;91.40;46.75;;;8.60;63.90;;;;;;4897973;29;20123;-89
2021/12/15 18:14:52;;;;;;;100.65;57.38;;;8.20;64.90;;;;;;5932776;23;21658;-89
2021/12/15 18:19:52;;;;;;;77.32;42.58;;;8.40;64.70;;;;;;4990398;23;20073;-89
2021/12/15 18:22:18;;;;;;;100.10;59.05;;;8.50;65.00;;;;;;4958700;28;20486;-89
2021/12/15 18:25:09;;;;;;;130.80;67.43;;;8.60;64.40;;;;;;4976430;28;20023;-87
2021/12/15 18:27:35;;;;;;;93.80;50.70;;;8.50;64.50;;;;;;4958739;28;20463;-89
2021/12/15 18:30:24;;;;;;;85.57;47.78;;;8.20;65.70;;;;;;4958488;28;20065;-89
2021/12/15 18:32:51;;;;;;;93.63;48.28;;;8.40;65.60;;;;;;4951216;28;20030;-89